Terminal Aerodrome Forecast
Issued by NWS Shreveport, LA

Home | Current Version | Previous Version | Text Only | Print | Product List | Glossary On
Versions: 1 2 3 4 5 6 7 8 9 10 11 12
363
FTUS44 KSHV 261759
TAFSHV
TAF
KSHV 261759Z 2618/2718 03011KT P6SM OVC018
     FM262000 03010KT P6SM BKN025
     FM262200 03009KT P6SM BKN035
     FM270400 04006KT P6SM SCT040 BKN120 BKN250
     FM271500 02007KT P6SM BKN150 BKN250=

USA.gov is the U.S. government's official web portal to all federal, state and local government web resources and services.